Time;durP1;ratioP1;P1;durP2;ratioP2;P2;SDS_P1;SDS_P2;PMS_P1;PMS_P2;Temp;Humidity;BMP_temperature;BMP_pressure;BME280_temperature;BME280_humidity;BME280_pressure;Samples;Min_cycle;Max_cycle;Signal;HPM_P1;HPM_P2
2021/08/04 00:01:39;;;;;;;5.68;4.72;;;16.30;99.90;;;16.02;100.00;100718.69;4151674;28;20022;-73
2021/08/04 00:03:40;;;;;;;6.40;4.90;;;16.30;99.90;;;15.92;100.00;100699.56;4167559;28;20508;-73
2021/08/04 00:05:40;;;;;;;8.52;5.15;;;16.30;99.90;;;15.90;100.00;100703.44;4167788;28;20551;-73
2021/08/04 00:07:41;;;;;;;4.75;4.00;;;16.20;99.90;;;15.90;100.00;100690.97;4183998;28;20021;-73
2021/08/04 00:09:44;;;;;;;5.82;4.35;;;16.30;99.90;;;15.89;100.00;100707.09;4167720;28;20041;-73
2021/08/04 00:11:45;;;;;;;6.75;3.75;;;16.20;99.90;;;15.85;100.00;100696.03;4167920;28;20040;-73
2021/08/04 00:13:46;;;;;;;5.63;4.15;;;16.20;99.90;;;15.77;100.00;100700.66;4167735;28;20030;-73
2021/08/04 00:15:47;;;;;;;7.95;3.95;;;16.20;99.90;;;15.77;100.00;100701.47;4168710;28;20037;-74
2021/08/04 00:17:48;;;;;;;5.97;4.07;;;16.20;99.90;;;15.90;100.00;100706.09;4151016;28;20084;-74
2021/08/04 00:19:49;;;;;;;5.85;3.95;;;16.20;99.90;;;16.06;100.00;100705.84;4167792;28;20036;-74
2021/08/04 00:21:50;;;;;;;4.63;3.88;;;16.30;99.90;;;15.98;100.00;100697.97;4168787;28;20025;-74
2021/08/04 00:23:51;;;;;;;5.05;3.63;;;16.20;99.90;;;15.87;100.00;100687.84;4168604;28;20041;-74
2021/08/04 00:25:52;;;;;;;4.65;3.25;;;16.20;99.90;;;15.94;100.00;100691.41;4167496;28;20032;-74
2021/08/04 00:27:53;;;;;;;5.07;3.38;;;16.20;99.90;;;15.74;100.00;100675.25;4168787;28;20574;-74
2021/08/04 00:29:55;;;;;;;4.68;3.33;;;16.20;99.90;;;15.88;100.00;100678.88;4168644;28;20033;-74
2021/08/04 00:31:56;;;;;;;5.28;3.55;;;16.20;99.90;;;15.80;100.00;100671.03;4167352;28;20041;-74
2021/08/04 00:33:57;;;;;;;5.40;3.33;;;16.10;99.90;;;15.90;100.00;100679.50;4167299;28;20099;-74
2021/08/04 00:35:58;;;;;;;6.22;3.80;;;16.20;99.90;;;15.88;100.00;100676.22;4168667;28;20052;-74
2021/08/04 00:37:59;;;;;;;4.75;4.25;;;16.10;99.90;;;15.84;100.00;100669.63;4167385;28;20064;-74
2021/08/04 00:40:00;;;;;;;4.38;3.92;;;16.20;99.90;;;15.86;100.00;100672.94;4179828;28;20044;-74
2021/08/04 00:42:01;;;;;;;5.28;4.07;;;16.20;99.90;;;15.84;100.00;100669.63;4168259;28;20037;-74
2021/08/04 00:44:01;;;;;;;5.20;4.00;;;16.20;99.90;;;15.70;100.00;100667.88;4167447;28;20061;-74
2021/08/04 00:46:02;;;;;;;5.15;4.15;;;16.10;99.90;;;15.70;100.00;100668.69;4160145;28;20052;-74
2021/08/04 00:48:04;;;;;;;5.15;3.80;;;16.10;99.90;;;15.69;100.00;100663.53;4179188;28;20443;-74
2021/08/04 00:50:06;;;;;;;4.07;3.53;;;16.10;99.90;;;15.69;100.00;100667.03;4150718;28;20045;-73
2021/08/04 00:52:08;;;;;;;4.93;3.10;;;16.00;99.90;;;15.61;100.00;100655.72;4168669;28;20032;-74
2021/08/04 00:54:09;;;;;;;5.82;3.83;;;16.00;99.90;;;15.47;100.00;100649.47;4169024;28;20082;-74
2021/08/04 00:56:10;;;;;;;4.57;3.70;;;16.00;99.90;;;15.41;100.00;100642.22;4168422;28;20086;-74
2021/08/04 00:58:11;;;;;;;6.55;4.03;;;15.90;99.90;;;15.40;100.00;100646.69;4168296;28;20072;-74
2021/08/04 01:00:12;;;;;;;4.97;3.50;;;15.90;99.90;;;15.39;100.00;100645.03;4167357;28;20026;-74
2021/08/04 01:02:18;;;;;;;4.15;3.55;;;15.90;99.90;;;15.54;100.00;100645.00;4163228;28;20068;-74
2021/08/04 01:04:29;;;;;;;5.22;3.97;;;15.90;99.90;;;15.59;100.00;100655.09;4203196;28;20726;-74
2021/08/04 01:07:16;;;;;;;4.10;3.55;;;15.90;99.90;;;15.52;100.00;100648.88;4170317;28;20517;-75
2021/08/04 01:09:21;;;;;;;5.72;4.38;;;15.90;99.90;;;15.45;100.00;100636.31;4168220;28;20034;-74
2021/08/04 01:11:31;;;;;;;6.40;4.03;;;15.90;99.90;;;15.54;100.00;100633.53;4171953;28;20036;-74
2021/08/04 01:13:46;;;;;;;5.28;4.03;;;15.90;99.90;;;15.66;100.00;100637.34;4169925;28;20028;-74
2021/08/04 01:16:12;;;;;;;6.05;3.35;;;15.90;99.90;;;15.52;100.00;100640.91;4166315;28;20382;-74
2021/08/04 01:18:19;;;;;;;4.85;3.60;;;15.90;99.90;;;15.50;100.00;100627.81;4156331;28;20087;-74
2021/08/04 01:20:25;;;;;;;6.05;3.90;;;15.90;99.90;;;15.58;100.00;100632.16;4170032;28;20034;-74
2021/08/04 01:22:39;;;;;;;5.65;3.50;;;15.90;99.90;;;15.50;100.00;100636.59;4167782;28;20049;-74
2021/08/04 01:25:00;;;;;;;7.10;3.33;;;15.90;99.90;;;15.37;100.00;100625.81;4164025;28;20033;-74
2021/08/04 01:27:01;;;;;;;4.75;3.42;;;15.90;99.90;;;15.38;100.00;100632.75;4153840;28;20517;-74
2021/08/04 01:29:04;;;;;;;3.90;3.05;;;15.80;99.90;;;15.39;100.00;100629.09;4169896;28;20504;-74
2021/08/04 01:31:10;;;;;;;4.13;3.60;;;15.80;99.90;;;15.32;100.00;100622.88;4170249;28;20452;-74
2021/08/04 01:33:16;;;;;;;5.47;3.63;;;15.80;99.90;;;15.26;100.00;100618.31;4169912;28;20026;-74
2021/08/04 01:35:18;;;;;;;5.00;3.25;;;15.70;99.90;;;15.41;100.00;100615.63;4170076;28;20029;-73
2021/08/04 01:37:22;;;;;;;4.88;4.22;;;15.70;99.90;;;15.43;100.00;100614.41;4170222;28;20029;-74
2021/08/04 01:39:24;;;;;;;4.63;3.30;;;15.80;99.90;;;15.31;100.00;100615.94;4170126;28;20065;-74
2021/08/04 01:41:26;;;;;;;3.72;3.10;;;15.80;99.90;;;15.32;100.00;100606.94;4169983;28;20025;-74
2021/08/04 01:43:30;;;;;;;4.80;3.60;;;15.70;99.90;;;15.37;100.00;100609.03;4169833;28;20525;-74
2021/08/04 01:45:31;;;;;;;4.22;3.17;;;15.70;99.90;;;15.25;100.00;100600.75;4171167;28;20034;-74
2021/08/04 01:47:32;;;;;;;5.10;3.30;;;15.70;99.90;;;15.33;100.00;100608.59;4169610;28;20040;-74
2021/08/04 01:49:34;;;;;;;5.28;3.55;;;15.70;99.90;;;15.37;100.00;100607.22;4153566;28;20092;-74
2021/08/04 01:51:37;;;;;;;4.25;3.15;;;15.70;99.90;;;15.53;100.00;100608.78;4153187;28;20133;-73
2021/08/04 01:53:40;;;;;;;4.25;3.50;;;15.80;99.90;;;15.44;100.00;100600.09;4171190;28;20022;-74
2021/08/04 01:55:43;;;;;;;5.47;3.65;;;15.80;99.90;;;15.39;100.00;100601.69;4169868;28;20396;-74
2021/08/04 01:57:44;;;;;;;3.83;3.40;;;15.80;99.90;;;15.42;100.00;100596.00;4169681;28;20041;-73
2021/08/04 01:59:45;;;;;;;7.30;3.20;;;15.80;99.90;;;15.32;100.00;100588.31;4153167;28;20417;-74
2021/08/04 02:01:46;;;;;;;4.30;3.58;;;15.80;99.90;;;15.31;100.00;100599.16;4142018;28;20060;-74
2021/08/04 02:03:46;;;;;;;4.72;3.05;;;15.70;99.90;;;15.23;100.00;100592.13;4170455;28;20029;-74
2021/08/04 02:05:48;;;;;;;4.95;3.33;;;15.70;99.90;;;15.31;100.00;100592.03;4169451;28;20017;-74
2021/08/04 02:08:23;;;;;;;4.45;3.45;;;15.70;99.90;;;15.17;100.00;100592.88;4169432;28;20071;-74
2021/08/04 02:11:02;;;;;;;6.07;3.47;;;15.70;99.90;;;15.31;100.00;100588.53;4155418;28;20181;-74
2021/08/04 02:13:30;;;;;;;3.80;3.05;;;15.60;99.90;;;15.18;100.00;100597.19;4161631;28;20041;-74
2021/08/04 02:15:34;;;;;;;3.05;2.75;;;15.70;99.90;;;15.18;100.00;100583.91;4170665;28;20096;-74
2021/08/04 02:17:46;;;;;;;6.00;4.05;;;15.70;99.90;;;15.29;100.00;100586.06;4170137;28;20117;-74
2021/08/04 02:20:02;;;;;;;3.63;3.33;;;15.60;99.90;;;15.39;100.00;100583.91;4169404;28;20034;-74
2021/08/04 02:22:18;;;;;;;3.78;2.95;;;15.60;99.90;;;15.34;100.00;100573.03;4170470;28;20041;-74
2021/08/04 02:24:23;;;;;;;5.22;2.85;;;15.70;99.90;;;15.35;100.00;100577.31;4169026;28;20025;-75
2021/08/04 02:26:27;;;;;;;5.07;3.67;;;15.70;99.90;;;15.40;100.00;100576.75;4161799;28;20029;-74
2021/08/04 02:28:35;;;;;;;6.15;3.42;;;15.70;99.90;;;15.16;100.00;100563.84;4169300;28;20025;-74
2021/08/04 02:30:36;;;;;;;4.38;3.33;;;15.70;99.90;;;15.12;100.00;100560.75;4169129;28;20033;-74
2021/08/04 02:32:39;;;;;;;5.20;2.92;;;15.60;99.90;;;15.14;100.00;100560.56;4169084;28;20025;-74
2021/08/04 02:34:41;;;;;;;3.92;2.80;;;15.60;99.90;;;15.25;100.00;100568.84;4161574;28;20025;-74
2021/08/04 02:36:42;;;;;;;3.75;2.92;;;15.60;99.90;;;15.31;100.00;100567.28;4164895;28;20485;-74
2021/08/04 02:38:45;;;;;;;5.53;3.35;;;15.60;99.90;;;15.37;100.00;100563.84;4169029;28;20072;-74
2021/08/04 02:40:48;;;;;;;3.72;3.05;;;15.70;99.90;;;15.33;100.00;100559.91;4158170;28;20048;-74
2021/08/04 02:42:52;;;;;;;6.57;3.08;;;15.70;99.90;;;15.44;100.00;100556.78;4161596;28;20033;-74
2021/08/04 02:44:53;;;;;;;5.23;3.40;;;15.70;99.90;;;15.27;100.00;100558.84;4172953;28;20029;-74
2021/08/04 02:46:54;;;;;;;3.88;3.08;;;15.70;99.90;;;15.39;100.00;100557.31;4168336;28;20272;-74
2021/08/04 02:48:57;;;;;;;3.42;2.92;;;15.60;99.90;;;15.41;100.00;100563.25;4158436;28;20059;-74
2021/08/04 02:51:08;;;;;;;3.53;3.00;;;15.70;99.90;;;15.33;100.00;100560.75;4168919;28;20047;-74
2021/08/04 02:53:13;;;;;;;3.85;2.92;;;15.70;99.90;;;15.33;100.00;100550.13;4168968;28;20036;-74
2021/08/04 02:55:14;;;;;;;;;;;15.70;99.90;;;15.26;100.00;100548.44;4153044;28;20022;-74
2021/08/04 02:57:15;;;;;;;3.97;2.90;;;15.70;99.90;;;15.26;100.00;100549.22;4168861;28;19909;-74
2021/08/04 02:59:16;;;;;;;3.10;2.45;;;15.60;99.90;;;15.35;100.00;100542.75;4157595;28;20041;-74
2021/08/04 03:01:17;;;;;;;4.03;3.10;;;15.70;99.90;;;15.36;100.00;100536.44;4168683;28;20025;-74
2021/08/04 03:03:18;;;;;;;3.22;2.78;;;15.70;99.90;;;15.32;100.00;100537.03;4168568;28;20021;-74
2021/08/04 03:05:19;;;;;;;3.58;2.88;;;15.70;99.90;;;15.16;100.00;100530.16;4152345;28;20022;-74
2021/08/04 03:07:20;;;;;;;3.75;2.88;;;15.70;99.90;;;15.35;100.00;100524.16;4168907;28;20040;-74
2021/08/04 03:09:21;;;;;;;3.20;2.70;;;15.70;99.90;;;15.25;100.00;100513.06;4168509;28;20033;-74
2021/08/04 03:11:22;;;;;;;3.05;2.53;;;15.70;99.90;;;15.31;100.00;100520.25;4168708;28;20108;-74
2021/08/04 03:13:23;;;;;;;3.75;2.83;;;15.70;99.90;;;15.34;100.00;100527.84;4168409;28;20088;-74
2021/08/04 03:15:24;;;;;;;3.78;3.05;;;15.70;99.90;;;15.24;100.00;100519.38;4169643;28;20021;-74
2021/08/04 03:17:25;;;;;;;4.53;2.88;;;15.70;99.90;;;15.15;100.00;100520.50;4168400;28;20424;-74
2021/08/04 03:19:26;;;;;;;4.03;2.38;;;15.60;99.90;;;15.25;100.00;100534.31;4152138;28;20037;-74
2021/08/04 03:21:27;;;;;;;5.55;3.40;;;15.70;99.90;;;15.32;100.00;100513.91;4168538;28;20018;-74
2021/08/04 03:23:28;;;;;;;3.15;2.70;;;15.60;99.90;;;15.28;100.00;100510.00;4151258;28;20121;-74
2021/08/04 03:25:29;;;;;;;4.72;2.72;;;15.70;99.90;;;15.29;100.00;100532.09;4169207;28;20021;-74
2021/08/04 03:27:42;;;;;;;3.00;2.60;;;15.70;99.90;;;15.21;100.00;100514.44;4169710;28;20561;-74
2021/08/04 03:30:11;;;;;;;3.28;2.65;;;15.70;99.90;;;15.40;100.00;100513.78;4168820;28;20404;-74
2021/08/04 03:32:12;;;;;;;3.35;2.40;;;15.60;99.90;;;15.42;100.00;100513.59;4167824;28;20037;-74
2021/08/04 03:34:13;;;;;;;3.58;2.70;;;15.70;99.90;;;15.43;100.00;100512.59;4168002;28;20039;-74
2021/08/04 03:36:14;;;;;;;3.72;2.22;;;15.70;99.90;;;15.27;100.00;100513.69;4176371;28;20526;-74
2021/08/04 03:38:15;;;;;;;3.05;2.75;;;15.70;99.90;;;15.33;100.00;100502.28;4163194;28;20155;-74
2021/08/04 03:40:16;;;;;;;2.50;2.30;;;15.70;99.90;;;15.42;100.00;100497.63;4167763;28;20038;-74
2021/08/04 03:42:17;;;;;;;5.13;3.10;;;15.80;99.90;;;15.49;100.00;100502.03;4156656;28;20068;-74
2021/08/04 03:44:18;;;;;;;7.57;2.40;;;15.80;99.90;;;15.52;100.00;100495.50;4159296;28;20029;-74
2021/08/04 03:46:19;;;;;;;3.40;2.20;;;15.80;99.90;;;15.49;100.00;100499.38;4146338;28;20123;-74
2021/08/04 03:48:20;;;;;;;2.97;2.25;;;15.80;99.90;;;15.47;100.00;100493.41;4184090;28;20535;-74
2021/08/04 03:50:21;;;;;;;2.95;2.22;;;15.80;99.90;;;15.40;100.00;100503.16;4184581;28;20025;-74
2021/08/04 03:52:22;;;;;;;3.95;2.42;;;15.80;99.90;;;15.42;100.00;100505.63;4184437;28;20029;-74
2021/08/04 03:54:23;;;;;;;3.17;2.17;;;15.80;99.90;;;15.43;100.00;100497.47;4151479;28;20048;-75
2021/08/04 03:56:24;;;;;;;2.72;2.28;;;15.80;99.90;;;15.50;100.00;100506.31;4184232;28;20033;-75
2021/08/04 03:58:25;;;;;;;2.25;2.05;;;15.80;99.90;;;15.57;100.00;100502.88;4151503;28;20064;-75
2021/08/04 04:00:26;;;;;;;3.00;2.08;;;15.80;99.90;;;15.45;100.00;100511.38;4158763;28;20037;-75
2021/08/04 04:02:27;;;;;;;2.47;2.17;;;15.90;99.90;;;15.34;100.00;100498.63;4145368;28;20025;-75
2021/08/04 04:04:28;;;;;;;2.97;2.10;;;15.80;99.90;;;15.52;100.00;100510.63;4166245;28;20029;-74
2021/08/04 04:06:29;;;;;;;3.70;2.30;;;15.80;99.90;;;15.45;100.00;100500.75;4180576;28;20056;-75
2021/08/04 04:08:29;;;;;;;4.60;2.03;;;15.80;99.90;;;15.50;100.00;100494.88;4159593;28;20064;-75
2021/08/04 04:10:31;;;;;;;3.65;2.05;;;15.80;99.90;;;15.51;100.00;100509.81;4168936;28;20712;-75
2021/08/04 04:12:32;;;;;;;2.90;2.25;;;15.90;99.90;;;15.55;100.00;100497.78;4151159;28;20029;-74
2021/08/04 04:14:33;;;;;;;4.32;2.33;;;15.80;99.90;;;15.56;100.00;100496.75;4184409;28;20115;-75
2021/08/04 04:16:34;;;;;;;2.13;1.80;;;15.90;99.90;;;15.41;100.00;100498.66;4167808;28;20034;-75
2021/08/04 04:18:35;;;;;;;3.05;2.50;;;15.80;99.90;;;15.36;100.00;100498.41;4168458;28;20084;-75
2021/08/04 04:20:36;;;;;;;2.30;2.05;;;15.80;99.90;;;15.42;100.00;100506.44;4167590;28;20401;-74
2021/08/04 04:22:37;;;;;;;2.83;2.20;;;15.80;99.90;;;15.43;100.00;100496.63;4167557;28;20055;-74
2021/08/04 04:28:18;;;;;;;2.10;1.75;;;15.90;99.90;;;15.60;100.00;100518.44;4168988;28;20048;-74
2021/08/04 04:30:19;;;;;;;4.47;1.95;;;15.90;99.90;;;15.48;100.00;100508.34;4168595;28;20029;-74
2021/08/04 04:32:20;;;;;;;2.60;1.88;;;15.90;99.90;;;15.53;100.00;100512.28;4151243;28;20072;-74
2021/08/04 04:34:21;;;;;;;2.25;2.05;;;15.90;99.90;;;15.58;100.00;100508.03;4158491;28;20112;-74
2021/08/04 04:36:22;;;;;;;4.50;2.13;;;15.90;99.90;;;15.50;100.00;100508.19;4168400;28;20025;-74
2021/08/04 04:38:23;;;;;;;3.25;2.00;;;15.90;99.90;;;15.52;100.00;100508.78;4167374;28;20033;-74
2021/08/04 04:40:24;;;;;;;3.45;1.73;;;15.90;99.90;;;15.55;100.00;100508.41;4167698;28;20505;-74
2021/08/04 04:42:25;;;;;;;2.53;1.88;;;15.90;99.90;;;15.52;100.00;100494.69;4167467;28;20028;-74
2021/08/04 04:44:26;;;;;;;3.05;1.85;;;15.90;99.90;;;15.47;100.00;100493.41;4161576;28;20057;-74
2021/08/04 04:46:27;;;;;;;2.95;1.50;;;15.90;99.90;;;15.45;100.00;100506.06;4167544;28;20021;-74
2021/08/04 04:48:28;;;;;;;2.05;1.60;;;15.90;99.90;;;15.52;100.00;100498.16;4167137;28;20488;-74
2021/08/04 04:50:29;;;;;;;2.88;2.00;;;15.90;99.90;;;15.59;100.00;100503.53;4167071;28;20040;-74
2021/08/04 04:52:30;;;;;;;1.80;1.58;;;15.90;99.90;;;15.63;100.00;100502.94;4160603;28;20022;-74
2021/08/04 04:54:31;;;;;;;2.67;1.83;;;16.00;99.90;;;15.72;100.00;100506.25;4167251;28;20026;-74
2021/08/04 04:56:32;;;;;;;3.15;1.63;;;16.00;99.90;;;15.56;100.00;100511.91;4165721;28;20499;-74
2021/08/04 04:58:33;;;;;;;2.97;1.67;;;16.00;99.90;;;15.57;100.00;100510.84;4188986;28;20028;-74
2021/08/04 05:00:33;;;;;;;1.80;1.40;;;15.90;99.90;;;15.65;100.00;100510.72;4168376;28;20448;-73
2021/08/04 05:02:39;;;;;;;3.80;2.00;;;16.00;99.90;;;15.66;100.00;100505.22;4166768;28;20037;-74
2021/08/04 05:04:40;;;;;;;4.88;1.67;;;15.90;99.90;;;15.63;100.00;100507.44;4167210;28;20113;-74
2021/08/04 05:06:41;;;;;;;2.40;1.50;;;16.00;99.90;;;15.69;100.00;100511.97;4167115;28;20563;-74
2021/08/04 05:08:42;;;;;;;2.33;1.67;;;16.00;99.90;;;15.69;100.00;100506.66;4167197;28;20033;-73
2021/08/04 05:10:42;;;;;;;2.92;1.60;;;16.00;99.90;;;15.63;100.00;100504.78;4163093;28;20521;-74
2021/08/04 05:12:43;;;;;;;1.92;1.63;;;16.00;99.90;;;15.75;100.00;100496.06;4183562;28;20039;-73
2021/08/04 05:14:44;;;;;;;3.17;1.65;;;16.00;99.90;;;15.79;100.00;100507.13;4156083;28;20111;-74
2021/08/04 05:16:45;;;;;;;5.78;1.70;;;16.10;99.90;;;15.85;100.00;100509.84;4168505;28;20048;-74
2021/08/04 05:18:46;;;;;;;2.47;1.42;;;16.10;99.90;;;15.69;100.00;100491.53;4166902;28;20087;-74
2021/08/04 05:20:47;;;;;;;2.22;1.63;;;16.10;99.90;;;15.69;100.00;100506.66;4168144;28;20048;-74
2021/08/04 05:22:48;;;;;;;2.40;1.55;;;16.10;99.90;;;15.66;100.00;100496.41;4167287;28;20026;-74
2021/08/04 05:24:49;;;;;;;6.70;2.03;;;16.00;99.90;;;15.75;100.00;100496.06;4167104;28;20032;-74
2021/08/04 05:26:50;;;;;;;2.05;1.58;;;16.10;99.90;;;15.69;100.00;100502.16;4167069;28;20026;-74
2021/08/04 05:28:51;;;;;;;3.33;1.50;;;16.10;99.90;;;15.74;100.00;100514.88;4166558;28;20049;-74
2021/08/04 05:30:52;;;;;;;1.50;1.40;;;16.10;99.90;;;15.57;100.00;100492.25;4178511;28;20030;-74
2021/08/04 05:32:53;;;;;;;1.73;1.60;;;16.10;99.90;;;15.59;100.00;100503.53;4158387;28;20052;-74
2021/08/04 05:34:54;;;;;;;2.22;1.55;;;16.00;99.90;;;15.72;100.00;100504.44;4161866;28;20116;-74
2021/08/04 05:36:55;;;;;;;2.47;1.77;;;16.10;99.90;;;15.72;100.00;100499.09;4166936;28;20108;-74
2021/08/04 05:38:57;;;;;;;1.63;1.50;;;16.10;99.90;;;15.59;100.00;100496.34;4166559;28;20026;-74
2021/08/04 05:40:58;;;;;;;1.45;1.30;;;16.10;99.90;;;15.57;100.00;100506.38;4150630;28;20053;-74
2021/08/04 05:42:59;;;;;;;1.73;1.40;;;16.00;99.90;;;15.67;100.00;100501.53;4150524;28;20022;-74
2021/08/04 05:45:00;;;;;;;3.60;1.58;;;16.00;99.90;;;15.58;100.00;100497.38;4150357;28;20501;-74
2021/08/04 05:47:01;;;;;;;1.88;1.70;;;16.10;99.90;;;15.71;100.00;100505.44;4167299;28;20061;-74
2021/08/04 05:49:02;;;;;;;2.13;1.40;;;16.10;99.90;;;15.67;100.00;100506.88;4169626;28;20496;-74
2021/08/04 05:51:02;;;;;;;2.80;1.70;;;16.10;99.90;;;15.68;100.00;100505.03;4169451;28;20034;-74
2021/08/04 05:53:04;;;;;;;3.75;1.63;;;16.10;99.90;;;15.70;100.00;100503.81;4170774;28;20040;-75
2021/08/04 05:55:06;;;;;;;2.45;1.40;;;16.10;99.90;;;15.67;100.00;100512.19;4169864;28;20044;-74
2021/08/04 05:57:07;;;;;;;2.15;1.40;;;16.10;99.90;;;15.77;100.00;100514.50;4137808;28;20037;-73
2021/08/04 05:59:08;;;;;;;2.75;1.55;;;16.10;99.90;;;15.68;100.00;100502.38;4165890;28;20141;-74
2021/08/04 06:01:09;;;;;;;1.88;1.30;;;16.10;99.90;;;15.70;100.00;100500.31;4167513;28;20025;-75
2021/08/04 06:03:10;;;;;;;1.88;1.48;;;16.10;99.90;;;15.70;100.00;100514.44;4169519;28;20037;-75
2021/08/04 06:05:12;;;;;;;2.15;1.52;;;16.20;99.90;;;15.61;100.00;100512.94;4152866;28;20468;-75
2021/08/04 06:07:13;;;;;;;1.42;1.10;;;16.10;99.90;;;15.70;100.00;100514.44;4169455;28;20021;-75
2021/08/04 06:09:14;;;;;;;1.73;1.55;;;16.20;99.90;;;15.73;100.00;100508.75;4170617;28;20036;-75
2021/08/04 06:11:15;;;;;;;1.90;1.58;;;16.20;99.90;;;15.77;100.00;100517.16;4169626;28;20072;-75
2021/08/04 06:13:16;;;;;;;1.90;1.30;;;16.30;99.90;;;15.71;100.00;100516.06;4169612;28;20108;-75
2021/08/04 06:15:17;;;;;;;1.35;1.25;;;16.30;99.90;;;15.89;100.00;100528.88;4152711;28;20030;-75
2021/08/04 06:17:18;;;;;;;1.55;1.30;;;16.30;99.90;;;15.92;100.00;100516.00;4169202;28;20021;-73
2021/08/04 06:19:19;;;;;;;1.75;1.30;;;16.30;99.90;;;15.95;100.00;100512.13;4164831;28;20030;-73
2021/08/04 06:21:20;;;;;;;1.52;1.23;;;16.40;99.90;;;15.91;100.00;100518.88;4168013;28;20025;-73
2021/08/04 06:23:21;;;;;;;1.30;1.20;;;16.40;99.90;;;15.84;100.00;100518.00;4168653;28;20048;-73
2021/08/04 06:25:22;;;;;;;1.85;1.55;;;16.40;99.90;;;15.91;100.00;100522.34;4168433;28;20025;-73
2021/08/04 06:27:23;;;;;;;2.53;1.10;;;16.40;99.90;;;15.96;100.00;100519.91;4169047;28;20559;-73
2021/08/04 06:29:24;;;;;;;2.35;1.30;;;16.40;99.90;;;15.99;100.00;100524.03;4170091;28;20022;-73
2021/08/04 06:31:25;;;;;;;1.30;1.10;;;16.40;99.90;;;16.00;100.00;100533.66;4168842;28;20053;-73
2021/08/04 06:33:25;;;;;;;1.30;1.15;;;16.40;99.90;;;15.95;100.00;100530.75;4169492;28;20060;-73
2021/08/04 06:35:26;;;;;;;1.83;1.38;;;16.50;99.90;;;15.99;100.00;100534.66;4168224;28;20060;-73
2021/08/04 06:37:27;;;;;;;2.50;1.50;;;16.40;99.90;;;16.03;100.00;100523.47;4169949;28;20061;-73
2021/08/04 06:39:28;;;;;;;4.40;1.45;;;16.50;99.90;;;15.99;100.00;100534.66;4151987;28;20060;-73
2021/08/04 06:41:29;;;;;;;2.58;1.38;;;16.50;99.90;;;15.99;100.00;100538.16;4168845;28;20038;-73
2021/08/04 06:43:30;;;;;;;1.48;1.10;;;16.50;99.90;;;15.94;100.00;100545.09;4136830;28;20049;-73
2021/08/04 06:45:31;;;;;;;1.35;1.00;;;16.50;99.90;;;15.93;100.00;100536.28;4184709;28;20103;-73
2021/08/04 06:47:32;;;;;;;1.50;0.90;;;16.50;99.90;;;15.89;100.00;100534.19;4158192;28;20029;-73
2021/08/04 06:49:33;;;;;;;1.30;1.10;;;16.40;99.90;;;15.99;100.00;100540.81;4167374;28;20021;-73
2021/08/04 06:51:35;;;;;;;2.00;1.00;;;16.50;99.90;;;16.02;100.00;100539.59;4164487;28;20029;-73
2021/08/04 06:53:36;;;;;;;1.60;1.30;;;16.50;99.90;;;15.86;100.00;100531.94;4150466;28;20389;-73
2021/08/04 06:55:37;;;;;;;2.95;1.10;;;16.50;99.90;;;15.88;100.00;100543.22;4174531;28;20025;-74
2021/08/04 06:57:38;;;;;;;1.70;1.40;;;16.50;99.90;;;15.86;100.00;100540.72;4168268;28;20057;-74
2021/08/04 06:59:38;;;;;;;1.35;1.10;;;16.50;99.90;;;15.87;100.00;100536.22;4167300;28;20025;-75
2021/08/04 07:01:39;;;;;;;1.73;1.10;;;16.50;99.90;;;15.90;100.00;100544.66;4166414;28;20037;-74
2021/08/04 07:03:40;;;;;;;1.77;0.95;;;16.50;99.90;;;15.91;100.00;100548.13;4166508;28;20447;-74
2021/08/04 07:05:41;;;;;;;1.33;1.20;;;16.50;99.90;;;15.74;100.00;100547.59;4161996;28;20603;-74
2021/08/04 07:07:43;;;;;;;1.48;1.02;;;16.50;99.90;;;15.79;100.00;100539.88;4167831;28;20148;-75
2021/08/04 07:09:44;;;;;;;1.30;1.05;;;16.50;99.90;;;15.85;100.00;100540.94;4168226;28;20109;-75
2021/08/04 07:11:45;;;;;;;1.00;0.82;;;16.50;99.90;;;15.81;100.00;100543.16;4167900;28;20037;-75
2021/08/04 07:13:46;;;;;;;1.30;1.05;;;16.50;99.90;;;15.91;100.00;100548.13;4167712;28;20137;-75
2021/08/04 07:15:47;;;;;;;1.95;1.20;;;16.50;99.90;;;15.90;100.00;100552.63;4187281;28;20029;-75
2021/08/04 07:17:50;;;;;;;1.85;1.05;;;16.50;99.90;;;15.86;100.00;100548.69;4155943;28;20029;-75
2021/08/04 07:19:51;;;;;;;1.55;1.02;;;16.50;99.90;;;15.99;100.00;100556.78;4167907;28;20036;-75
2021/08/04 07:21:52;;;;;;;1.50;1.17;;;16.50;99.90;;;15.79;100.00;100544.38;4167932;28;20657;-75
2021/08/04 07:23:53;;;;;;;1.88;1.00;;;16.50;99.90;;;15.94;100.00;100555.72;4168616;28;20021;-75
2021/08/04 07:25:54;;;;;;;1.50;1.15;;;16.50;99.90;;;15.95;100.00;100560.00;4151027;28;20068;-75
2021/08/04 07:27:55;;;;;;;1.60;1.10;;;16.60;99.90;;;16.03;100.00;100563.38;4151396;28;20456;-75
2021/08/04 07:29:56;;;;;;;1.75;1.27;;;16.60;99.90;;;16.01;100.00;100552.06;4167689;28;20115;-75
2021/08/04 07:31:57;;;;;;;3.15;1.70;;;16.60;99.90;;;15.90;100.00;100549.13;4167743;28;20389;-75
2021/08/04 07:33:58;;;;;;;2.58;1.33;;;16.60;99.90;;;15.91;100.00;100553.44;4167515;28;20037;-75
2021/08/04 07:35:59;;;;;;;2.65;1.15;;;16.60;99.90;;;15.88;100.00;100565.31;4167334;28;20034;-75
2021/08/04 07:38:00;;;;;;;1.20;1.08;;;16.60;99.90;;;15.84;100.00;100571.19;4167905;28;20037;-75
2021/08/04 07:40:04;;;;;;;3.15;1.10;;;16.60;99.90;;;15.89;100.00;100558.94;4168929;28;20132;-75
2021/08/04 07:42:05;;;;;;;;;;;16.60;99.90;;;15.74;100.00;100566.22;4168110;28;20022;-75
2021/08/04 07:44:06;;;;;;;3.75;1.00;;;16.60;99.90;;;15.84;100.00;100565.88;4150977;28;20407;-75
2021/08/04 07:46:07;;;;;;;1.77;1.08;;;16.60;99.90;;;15.82;100.00;100568.75;4168474;28;20480;-75
2021/08/04 07:48:08;;;;;;;1.40;1.27;;;16.60;99.90;;;15.86;100.00;100569.19;4166928;28;20052;-75
2021/08/04 07:50:09;;;;;;;2.90;1.20;;;16.60;99.90;;;15.80;100.00;100561.97;4167483;28;20061;-72
2021/08/04 07:52:10;;;;;;;3.15;1.10;;;16.70;99.90;;;15.96;100.00;100573.13;4168737;28;20071;-72
2021/08/04 07:54:11;;;;;;;1.30;1.10;;;16.70;99.90;;;16.12;100.00;100580.00;4167233;28;20485;-72
2021/08/04 07:56:12;;;;;;;2.08;1.50;;;16.70;99.90;;;15.92;100.00;100584.34;4166859;28;20032;-72
2021/08/04 07:58:13;;;;;;;2.50;1.17;;;16.70;99.90;;;15.80;100.00;100584.06;4167189;28;20092;-73
2021/08/04 08:00:15;;;;;;;1.25;1.02;;;16.80;99.90;;;15.88;100.00;100593.75;4157814;28;20412;-72
2021/08/04 08:02:16;;;;;;;2.60;1.27;;;16.80;99.90;;;15.89;100.00;100577.56;4167084;28;20025;-74
2021/08/04 08:04:17;;;;;;;4.00;1.50;;;16.80;99.90;;;15.97;100.00;100584.59;4167989;28;20083;-74
2021/08/04 08:06:18;;;;;;;1.40;1.20;;;16.80;99.90;;;15.99;100.00;100586.03;4166850;28;20037;-76
2021/08/04 08:08:19;;;;;;;1.20;0.95;;;16.90;99.90;;;16.08;100.00;100585.88;4172454;28;20032;-75
2021/08/04 08:10:21;;;;;;;3.55;1.33;;;16.90;99.90;;;15.99;100.00;100583.38;4158456;28;20067;-74
2021/08/04 08:12:22;;;;;;;1.33;1.08;;;17.00;99.90;;;15.87;100.00;100574.28;4167083;28;20029;-74
2021/08/04 08:14:24;;;;;;;1.27;1.00;;;17.00;99.90;;;15.95;100.00;100575.97;4166684;28;20044;-74
2021/08/04 08:16:25;;;;;;;2.10;1.02;;;17.00;99.90;;;15.97;100.00;100581.94;4150300;28;20057;-75
2021/08/04 08:18:26;;;;;;;5.57;1.05;;;17.00;99.90;;;15.96;100.00;100583.78;4150416;28;20053;-74
2021/08/04 08:20:27;;;;;;;1.70;0.80;;;17.00;99.90;;;15.73;100.00;100569.09;4167981;28;20030;-74
2021/08/04 08:22:28;;;;;;;1.02;0.80;;;17.00;99.90;;;15.85;100.00;100581.66;4167605;28;20025;-75
2021/08/04 08:24:29;;;;;;;2.33;0.98;;;16.90;99.90;;;15.78;100.00;100577.28;4166667;28;20014;-73
2021/08/04 08:26:30;;;;;;;0.80;0.80;;;17.00;99.90;;;15.99;100.00;100591.38;4156132;28;20025;-75
2021/08/04 08:28:31;;;;;;;1.33;1.10;;;17.00;99.90;;;15.87;100.00;100584.94;4164635;28;20468;-75